Time;durP1;ratioP1;P1;durP2;ratioP2;P2;SDS_P1;SDS_P2;PMS_P1;PMS_P2;Temp;Humidity;BMP_temperature;BMP_pressure;BME280_temperature;BME280_humidity;BME280_pressure;Samples;Min_cycle;Max_cycle;Signal;HPM_P1;HPM_P2
2022/01/04 00:00:47;;;;;;;23.48;8.25;;;8.40;99.90;;;;;;5014742;28;20514;-49
2022/01/04 00:03:13;;;;;;;23.70;7.60;;;8.40;99.90;;;;;;5014036;28;20065;-51
2022/01/04 00:05:39;;;;;;;22.65;8.23;;;8.50;99.90;;;;;;4997037;28;20567;-53
2022/01/04 00:08:08;;;;;;;26.23;8.25;;;8.50;99.90;;;;;;5014553;28;20045;-53
2022/01/04 00:10:35;;;;;;;27.13;8.85;;;8.50;99.90;;;;;;5014420;28;20045;-48
2022/01/04 00:15:45;;;;;;;26.92;7.97;;;8.50;99.90;;;;;;5014597;28;20045;-51
2022/01/04 00:18:11;;;;;;;23.02;7.47;;;8.50;99.90;;;;;;5013978;28;20038;-52
2022/01/04 00:20:37;;;;;;;22.10;7.47;;;8.50;99.90;;;;;;5014226;28;20048;-53
2022/01/04 00:23:03;;;;;;;23.13;7.53;;;8.50;99.90;;;;;;5014175;28;20037;-54
2022/01/04 00:25:29;;;;;;;26.63;7.60;;;8.50;99.90;;;;;;5014504;28;20048;-49
2022/01/04 00:27:55;;;;;;;29.58;7.25;;;8.50;99.90;;;;;;5014390;28;20172;-48
2022/01/04 00:30:20;;;;;;;25.27;7.45;;;8.50;99.90;;;;;;5014130;28;20121;-48
2022/01/04 00:32:46;;;;;;;21.35;7.60;;;8.50;99.90;;;;;;5013758;28;20034;-49
2022/01/04 00:35:12;;;;;;;24.00;7.45;;;8.50;99.90;;;;;;5014116;28;20089;-48
2022/01/04 00:37:37;;;;;;;25.25;7.90;;;8.50;99.90;;;;;;5014124;28;20042;-50
2022/01/04 00:40:03;;;;;;;21.00;7.50;;;8.50;99.90;;;;;;4996418;28;20081;-50
2022/01/04 00:42:29;;;;;;;24.48;7.38;;;8.50;99.90;;;;;;5013843;28;20124;-49
2022/01/04 00:44:55;;;;;;;26.15;6.97;;;8.50;99.90;;;;;;5014125;28;20707;-49
2022/01/04 00:47:26;;;;;;;27.00;8.07;;;8.50;99.90;;;;;;5013724;28;20048;-49
2022/01/04 00:49:52;;;;;;;23.50;8.18;;;8.50;99.90;;;;;;5013361;28;20041;-49
2022/01/04 00:52:18;;;;;;;21.77;7.63;;;8.50;99.90;;;;;;5013495;28;20100;-48
2022/01/04 00:54:45;;;;;;;23.88;7.60;;;8.50;99.90;;;;;;5012332;28;20042;-49
2022/01/04 00:57:11;;;;;;;25.23;8.10;;;8.50;99.90;;;;;;5023809;28;20041;-48
2022/01/04 00:59:36;;;;;;;30.92;10.57;;;8.50;99.90;;;;;;5025169;28;20065;-50
2022/01/04 01:02:02;;;;;;;25.23;8.98;;;8.40;99.90;;;;;;5013349;28;20057;-51
2022/01/04 01:04:28;;;;;;;25.27;8.95;;;8.50;99.90;;;;;;5012893;28;20457;-52
2022/01/04 01:06:53;;;;;;;29.63;9.20;;;8.50;99.90;;;;;;5013865;28;20046;-48
2022/01/04 01:09:21;;;;;;;23.63;9.07;;;8.50;99.90;;;;;;5012921;28;20099;-49
2022/01/04 01:11:47;;;;;;;30.00;9.60;;;8.50;99.90;;;;;;5013477;28;20452;-51
2022/01/04 01:14:12;;;;;;;24.80;9.27;;;8.50;99.90;;;;;;5013357;28;20125;-52
2022/01/04 01:16:38;;;;;;;31.75;10.35;;;8.50;99.90;;;;;;5013105;28;20167;-51
2022/01/04 01:19:03;;;;;;;25.50;8.55;;;8.50;99.90;;;;;;5012894;28;20073;-52
2022/01/04 01:21:29;;;;;;;29.20;8.85;;;8.50;99.90;;;;;;5013505;28;20117;-49
2022/01/04 01:23:54;;;;;;;26.60;8.77;;;8.50;99.90;;;;;;5013370;28;20081;-53
2022/01/04 01:26:20;;;;;;;34.95;10.30;;;8.50;99.90;;;;;;5013349;28;20030;-48
2022/01/04 01:28:45;;;;;;;26.52;10.13;;;8.50;99.90;;;;;;5012772;28;20038;-49
2022/01/04 01:31:11;;;;;;;25.33;10.00;;;8.40;99.90;;;;;;5012560;28;20037;-49
2022/01/04 01:33:37;;;;;;;24.75;10.23;;;8.50;99.90;;;;;;5012815;28;20434;-50
2022/01/04 01:36:03;;;;;;;27.48;10.60;;;8.50;99.90;;;;;;5013226;28;20042;-51
2022/01/04 01:38:29;;;;;;;29.35;11.10;;;8.50;99.90;;;;;;5013199;28;20044;-54
2022/01/04 01:40:54;;;;;;;31.73;11.00;;;8.50;99.90;;;;;;5012868;28;20045;-49
2022/01/04 01:43:23;;;;;;;23.33;10.52;;;8.50;99.90;;;;;;5012465;28;20069;-48
2022/01/04 01:45:48;;;;;;;30.63;11.10;;;8.50;99.90;;;;;;5012538;28;20051;-48
2022/01/04 01:48:14;;;;;;;27.42;11.93;;;8.50;99.90;;;;;;5012460;28;20037;-48
2022/01/04 01:50:39;;;;;;;28.23;10.73;;;8.50;99.90;;;;;;5012714;28;20045;-49
2022/01/04 01:53:05;;;;;;;23.52;10.82;;;8.50;99.90;;;;;;5012518;28;20038;-48
2022/01/04 01:55:31;;;;;;;27.10;10.02;;;8.50;99.90;;;;;;5012729;28;20133;-51
2022/01/04 01:57:57;;;;;;;37.85;12.80;;;8.50;99.90;;;;;;5012112;28;20030;-50
2022/01/04 02:00:25;;;;;;;30.05;11.38;;;8.60;99.90;;;;;;5012250;28;20405;-50
2022/01/04 02:02:51;;;;;;;30.55;11.52;;;8.50;99.90;;;;;;5012251;28;20092;-53
2022/01/04 02:05:17;;;;;;;28.92;11.55;;;8.40;99.90;;;;;;5012707;28;20046;-51
2022/01/04 02:07:43;;;;;;;34.40;10.93;;;8.40;99.90;;;;;;5012616;28;20049;-52
2022/01/04 02:10:09;;;;;;;31.35;12.18;;;8.40;99.90;;;;;;4994740;28;20112;-51
2022/01/04 02:12:44;;;;;;;30.92;12.45;;;8.40;99.90;;;;;;5012086;28;20070;-52
2022/01/04 02:15:13;;;;;;;25.80;11.27;;;8.40;99.90;;;;;;5011656;28;20042;-53
2022/01/04 02:17:39;;;;;;;30.70;11.55;;;8.40;99.90;;;;;;5012316;28;20440;-51
2022/01/04 02:20:07;;;;;;;32.92;12.63;;;8.40;99.90;;;;;;5012349;28;20126;-51
2022/01/04 02:22:33;;;;;;;32.72;12.05;;;8.40;99.90;;;;;;5012121;28;20046;-52
2022/01/04 02:24:58;;;;;;;26.48;11.65;;;8.40;99.90;;;;;;5012046;28;20054;-52
2022/01/04 02:27:24;;;;;;;29.80;11.82;;;8.40;99.90;;;;;;5012224;28;20042;-52
2022/01/04 02:29:50;;;;;;;28.42;12.35;;;8.40;99.90;;;;;;5011552;28;20073;-52
2022/01/04 02:32:16;;;;;;;28.05;12.88;;;8.40;99.90;;;;;;5012275;28;20077;-52
2022/01/04 02:34:49;;;;;;;28.23;12.07;;;8.40;99.90;;;;;;5012236;28;20042;-52
2022/01/04 02:37:24;;;;;;;26.85;11.15;;;8.40;99.90;;;;;;5012133;28;20038;-53
2022/01/04 02:39:50;;;;;;;28.38;11.88;;;8.50;99.90;;;;;;5012006;28;20082;-52
2022/01/04 02:42:16;;;;;;;26.58;12.07;;;8.50;99.90;;;;;;5011790;28;20065;-52
2022/01/04 02:44:42;;;;;;;26.27;11.35;;;8.50;99.90;;;;;;5011926;28;20595;-51
2022/01/04 02:47:08;;;;;;;26.83;12.07;;;8.50;99.90;;;;;;5012140;28;20406;-51
2022/01/04 02:49:34;;;;;;;31.45;12.13;;;8.50;99.90;;;;;;5011822;28;20127;-53
2022/01/04 02:51:59;;;;;;;32.25;12.93;;;8.50;99.90;;;;;;5011369;28;20041;-56
2022/01/04 02:54:25;;;;;;;34.22;13.38;;;8.50;99.90;;;;;;5006398;28;20558;-55
2022/01/04 02:56:50;;;;;;;40.40;12.63;;;8.50;99.90;;;;;;5004666;28;20117;-53
2022/01/04 02:59:16;;;;;;;23.40;12.32;;;8.40;99.90;;;;;;5011073;28;20053;-53
2022/01/04 03:01:41;;;;;;;24.38;11.95;;;8.50;99.90;;;;;;5011784;28;20076;-56
2022/01/04 03:04:08;;;;;;;33.33;12.38;;;8.50;99.90;;;;;;5011415;28;20100;-53
2022/01/04 03:06:34;;;;;;;41.00;12.05;;;8.50;99.90;;;;;;5011111;28;20045;-54
2022/01/04 03:09:00;;;;;;;32.47;11.85;;;8.50;99.90;;;;;;5011341;28;20049;-53
2022/01/04 03:11:26;;;;;;;37.67;12.80;;;8.50;99.90;;;;;;5011747;28;20038;-55
2022/01/04 03:13:51;;;;;;;29.25;13.35;;;8.50;99.90;;;;;;5011606;28;20037;-53
2022/01/04 03:16:17;;;;;;;22.38;11.65;;;8.40;99.90;;;;;;5011542;28;20640;-53
2022/01/04 03:19:16;;;;;;;28.38;11.82;;;8.50;99.90;;;;;;5011734;28;20441;-51
2022/01/04 03:21:42;;;;;;;32.43;12.80;;;8.50;99.90;;;;;;5007616;28;20073;-53
2022/01/04 03:24:10;;;;;;;28.35;13.43;;;8.50;99.90;;;;;;5010956;28;20288;-53
2022/01/04 03:26:35;;;;;;;32.08;13.50;;;8.60;99.90;;;;;;5013728;28;20038;-53
2022/01/04 03:29:02;;;;;;;32.55;12.88;;;8.50;99.90;;;;;;5015195;28;20121;-53
2022/01/04 03:31:29;;;;;;;31.88;13.52;;;8.50;99.90;;;;;;5005018;28;20069;-53
2022/01/04 03:33:54;;;;;;;32.53;13.43;;;8.50;99.90;;;;;;4997413;28;20087;-55
2022/01/04 03:36:22;;;;;;;31.65;14.20;;;8.50;99.90;;;;;;5015316;28;20129;-53
2022/01/04 03:38:48;;;;;;;28.33;13.20;;;8.50;99.90;;;;;;5014825;28;20042;-53
2022/01/04 03:41:16;;;;;;;29.75;13.00;;;8.50;99.90;;;;;;5015007;28;20549;-53
2022/01/04 03:43:41;;;;;;;28.80;13.23;;;8.50;99.90;;;;;;5014801;28;20065;-50
2022/01/04 03:46:07;;;;;;;31.88;13.23;;;8.50;99.90;;;;;;5015042;28;20128;-50
2022/01/04 03:48:34;;;;;;;31.08;13.60;;;8.50;99.90;;;;;;5014839;28;20042;-52
2022/01/04 03:51:01;;;;;;;36.38;13.00;;;8.40;99.90;;;;;;5014722;28;20494;-50
2022/01/04 03:53:26;;;;;;;29.58;13.07;;;8.40;99.90;;;;;;5014309;28;20073;-50
2022/01/04 03:55:52;;;;;;;27.30;13.38;;;8.50;99.90;;;;;;5014804;28;20092;-53
2022/01/04 03:58:18;;;;;;;33.08;14.13;;;8.50;99.90;;;;;;5014752;28;20034;-50
2022/01/04 04:00:43;;;;;;;34.60;13.38;;;8.40;99.90;;;;;;5014440;28;20506;-51
2022/01/04 04:03:09;;;;;;;28.38;14.13;;;8.40;99.90;;;;;;5014523;28;20041;-53
2022/01/04 04:05:34;;;;;;;27.25;13.48;;;8.40;99.90;;;;;;5014644;28;20510;-50
2022/01/04 04:08:00;;;;;;;28.98;13.88;;;8.40;99.90;;;;;;5014393;28;20124;-51
2022/01/04 04:10:25;;;;;;;29.08;13.48;;;8.50;99.90;;;;;;5014427;28;20100;-52
2022/01/04 04:12:51;;;;;;;32.53;14.18;;;8.40;99.90;;;;;;5014174;28;20045;-50
2022/01/04 04:15:16;;;;;;;30.10;14.55;;;8.50;99.90;;;;;;5014695;28;20636;-50
2022/01/04 04:17:45;;;;;;;24.95;13.60;;;8.50;99.90;;;;;;5014599;28;20069;-50
2022/01/04 04:20:11;;;;;;;32.88;13.70;;;8.50;99.90;;;;;;5014336;28;20042;-50
2022/01/04 04:22:36;;;;;;;32.58;14.38;;;8.40;99.90;;;;;;5014102;28;20037;-51
2022/01/04 04:25:02;;;;;;;29.60;14.73;;;8.50;99.90;;;;;;5014093;28;20050;-50
2022/01/04 04:27:28;;;;;;;34.17;15.35;;;8.50;99.90;;;;;;5014026;28;20083;-52
2022/01/04 04:29:53;;;;;;;27.80;14.35;;;8.50;99.90;;;;;;5014109;28;20041;-50
2022/01/04 04:32:19;;;;;;;28.40;13.25;;;8.50;99.90;;;;;;5045997;22;20047;-48
2022/01/04 04:34:44;;;;;;;31.05;13.25;;;8.50;99.90;;;;;;5040078;28;20159;-48
2022/01/04 04:37:10;;;;;;;25.02;12.45;;;8.50;99.90;;;;;;5015250;28;20139;-49
2022/01/04 04:39:35;;;;;;;31.90;12.45;;;8.50;99.90;;;;;;5042592;28;20054;-48
2022/01/04 04:42:01;;;;;;;23.63;11.68;;;8.50;99.90;;;;;;5015932;28;20041;-47
2022/01/04 04:44:27;;;;;;;24.73;11.80;;;8.50;99.90;;;;;;5016513;28;20077;-48
2022/01/04 04:46:52;;;;;;;22.55;11.75;;;8.60;99.90;;;;;;5034065;28;20047;-48
2022/01/04 04:49:18;;;;;;;24.73;12.75;;;8.60;99.90;;;;;;5033501;28;20037;-48
2022/01/04 04:51:44;;;;;;;24.45;12.25;;;8.50;99.90;;;;;;5033529;28;20037;-48
2022/01/04 04:54:09;;;;;;;30.38;13.18;;;8.60;99.90;;;;;;5006154;28;20073;-48
2022/01/04 04:56:38;;;;;;;25.55;12.00;;;8.50;99.90;;;;;;5032034;28;20120;-48
2022/01/04 04:59:05;;;;;;;26.92;14.15;;;8.50;99.90;;;;;;5033551;28;20033;-48
2022/01/04 05:01:30;;;;;;;27.88;13.85;;;8.50;99.90;;;;;;5033477;28;20099;-48
2022/01/04 05:03:56;;;;;;;30.05;15.18;;;8.60;99.90;;;;;;5032837;28;20049;-51
2022/01/04 05:06:21;;;;;;;29.75;14.48;;;8.50;99.90;;;;;;5015511;28;20045;-54
2022/01/04 05:08:47;;;;;;;32.20;15.85;;;8.50;99.90;;;;;;5027756;28;20112;-51
2022/01/04 05:11:13;;;;;;;28.00;14.02;;;8.50;99.90;;;;;;5029956;28;20040;-50
2022/01/04 05:13:38;;;;;;;32.72;15.02;;;8.50;99.90;;;;;;5033101;28;20033;-51
2022/01/04 05:16:04;;;;;;;33.65;16.10;;;8.50;99.90;;;;;;5033214;28;20084;-52
2022/01/04 05:18:29;;;;;;;34.38;15.88;;;8.50;99.90;;;;;;5033276;28;20044;-52
2022/01/04 05:20:55;;;;;;;32.22;14.65;;;8.50;99.90;;;;;;5032774;28;20072;-52
2022/01/04 05:23:21;;;;;;;28.10;14.75;;;8.50;99.90;;;;;;5031339;28;20091;-51
2022/01/04 05:25:46;;;;;;;31.38;15.35;;;8.50;99.90;;;;;;5022243;28;20080;-51
2022/01/04 05:28:12;;;;;;;34.40;15.82;;;8.50;99.90;;;;;;5013189;28;20153;-51
2022/01/04 05:30:37;;;;;;;30.15;14.57;;;8.40;99.90;;;;;;5012919;28;20041;-52
2022/01/04 05:33:03;;;;;;;27.15;15.38;;;8.50;99.90;;;;;;5012574;28;20528;-51
2022/01/04 05:35:28;;;;;;;30.27;16.00;;;8.40;99.90;;;;;;4979165;28;20077;-51
2022/01/04 05:37:54;;;;;;;32.47;14.68;;;8.40;99.90;;;;;;5022299;28;20041;-48
2022/01/04 05:40:20;;;;;;;39.72;16.50;;;8.40;99.90;;;;;;5020640;28;20046;-52
2022/01/04 05:42:46;;;;;;;33.10;16.60;;;8.40;99.90;;;;;;4964316;28;20038;-49
2022/01/04 05:45:12;;;;;;;28.05;15.70;;;8.40;99.90;;;;;;4998227;28;20425;-53
2022/01/04 05:47:37;;;;;;;30.42;16.55;;;8.40;99.90;;;;;;5032591;28;20249;-51
2022/01/04 05:50:05;;;;;;;33.55;17.60;;;8.40;99.90;;;;;;5031754;28;20049;-49
2022/01/04 05:52:32;;;;;;;36.67;17.48;;;8.40;99.90;;;;;;5006344;28;20037;-51
2022/01/04 05:54:57;;;;;;;39.13;16.75;;;8.40;99.90;;;;;;4995349;28;20042;-51
2022/01/04 05:57:23;;;;;;;37.85;16.90;;;8.40;99.90;;;;;;5012800;28;20045;-51
2022/01/04 05:59:48;;;;;;;34.33;17.08;;;8.30;99.90;;;;;;5012600;28;20042;-51
2022/01/04 06:02:14;;;;;;;34.83;18.20;;;8.40;99.90;;;;;;5012472;28;20047;-52
2022/01/04 06:04:39;;;;;;;36.22;18.15;;;8.40;99.90;;;;;;5012305;28;20077;-48
2022/01/04 06:07:05;;;;;;;36.88;16.85;;;8.40;99.90;;;;;;5026404;28;20042;-52
2022/01/04 06:09:40;;;;;;;32.65;16.67;;;8.30;99.90;;;;;;5032217;28;20037;-52
2022/01/04 06:14:50;;;;;;;27.58;16.67;;;8.40;99.90;;;;;;5030668;28;20090;-49
2022/01/04 06:14:53;;;;;;;35.38;17.80;;;8.40;99.90;;;;;;5021689;28;20091;-50
2022/01/04 06:17:20;;;;;;;33.08;17.05;;;8.40;99.90;;;;;;5012635;28;20109;-48
2022/01/04 06:19:46;;;;;;;31.55;17.35;;;8.30;99.90;;;;;;5012456;28;20421;-50
2022/01/04 06:22:12;;;;;;;30.52;18.00;;;8.30;99.90;;;;;;5013397;28;20041;-51
2022/01/04 06:24:38;;;;;;;38.28;16.67;;;8.30;99.90;;;;;;5023511;28;20073;-50
2022/01/04 06:27:10;;;;;;;33.45;17.20;;;8.30;99.90;;;;;;5031702;28;20042;-52
2022/01/04 06:29:37;;;;;;;;;;;8.30;99.90;;;;;;5032167;28;20080;-52
2022/01/04 06:32:04;;;;;;;33.50;17.33;;;8.30;99.90;;;;;;4997279;28;19917;-51
2022/01/04 06:34:30;;;;;;;36.63;17.88;;;8.30;99.90;;;;;;5031927;28;20037;-48
2022/01/04 06:36:56;;;;;;;31.58;17.60;;;8.30;99.90;;;;;;5031923;28;20056;-49
2022/01/04 06:39:21;;;;;;;32.40;18.05;;;8.30;99.90;;;;;;5023979;28;20034;-51
2022/01/04 06:41:47;;;;;;;35.17;17.92;;;8.20;99.90;;;;;;5031555;28;20033;-53
2022/01/04 06:44:12;;;;;;;36.15;18.15;;;8.20;99.90;;;;;;4997717;28;20045;-50
2022/01/04 06:46:44;;;;;;;36.63;18.55;;;8.20;99.90;;;;;;5027895;28;20397;-49
2022/01/04 06:49:10;;;;;;;35.08;18.90;;;8.30;99.90;;;;;;5027113;28;20124;-49
2022/01/04 06:51:36;;;;;;;33.65;18.88;;;8.30;99.90;;;;;;5040949;28;20536;-49
2022/01/04 06:54:01;;;;;;;33.25;17.35;;;8.20;99.90;;;;;;5033819;28;20088;-52
2022/01/04 06:56:27;;;;;;;39.03;19.00;;;8.20;99.90;;;;;;5019001;28;20061;-50
2022/01/04 06:58:53;;;;;;;39.67;19.35;;;8.20;99.90;;;;;;5029620;28;20038;-52
2022/01/04 07:01:19;;;;;;;38.72;19.13;;;8.30;99.90;;;;;;4999029;28;20037;-51
2022/01/04 07:03:45;;;;;;;33.58;18.00;;;8.30;99.90;;;;;;5001449;28;20130;-49
2022/01/04 07:06:10;;;;;;;37.35;18.17;;;8.30;99.90;;;;;;4999207;28;20120;-49
2022/01/04 07:08:36;;;;;;;38.95;19.20;;;8.20;99.90;;;;;;5032529;28;20116;-49
2022/01/04 07:11:01;;;;;;;36.60;18.90;;;8.30;99.90;;;;;;5033966;28;20065;-50
2022/01/04 07:13:27;;;;;;;38.80;18.83;;;8.30;99.90;;;;;;4989785;28;20038;-49
2022/01/04 07:15:52;;;;;;;39.05;19.23;;;8.30;99.90;;;;;;5034799;28;20084;-51
2022/01/04 07:18:18;;;;;;;33.80;18.55;;;8.30;99.90;;;;;;5035452;28;20045;-49
2022/01/04 07:20:44;;;;;;;34.13;19.50;;;8.30;99.90;;;;;;5035106;28;20033;-51
2022/01/04 07:23:09;;;;;;;33.58;18.42;;;8.30;99.90;;;;;;5000901;28;20563;-48
2022/01/04 07:25:35;;;;;;;35.75;18.73;;;8.30;99.90;;;;;;5035313;28;20113;-49
2022/01/04 07:28:01;;;;;;;37.13;18.85;;;8.30;99.90;;;;;;5009096;28;20509;-51
2022/01/04 07:30:27;;;;;;;33.95;18.52;;;8.30;99.90;;;;;;4974264;28;20037;-51
2022/01/04 07:32:52;;;;;;;36.17;19.33;;;8.30;99.90;;;;;;5000954;28;20033;-51
2022/01/04 07:35:18;;;;;;;35.70;18.85;;;8.40;99.90;;;;;;5035175;28;20048;-49
2022/01/04 07:37:44;;;;;;;36.47;20.02;;;8.30;99.90;;;;;;5034867;28;20036;-49
2022/01/04 07:40:10;;;;;;;38.45;19.40;;;8.30;99.90;;;;;;5017225;28;20073;-48
2022/01/04 07:42:35;;;;;;;35.63;18.65;;;8.30;99.90;;;;;;5017110;28;20132;-51
2022/01/04 07:45:02;;;;;;;33.97;19.77;;;8.30;99.90;;;;;;5017830;28;20120;-48
2022/01/04 07:47:28;;;;;;;32.92;19.38;;;8.40;99.90;;;;;;5020778;28;20033;-49
2022/01/04 07:49:53;;;;;;;37.40;20.25;;;8.40;99.90;;;;;;5031379;28;20030;-49
2022/01/04 07:52:19;;;;;;;36.92;18.52;;;8.40;99.90;;;;;;5023341;28;20076;-48
2022/01/04 07:54:45;;;;;;;37.03;19.92;;;8.40;99.90;;;;;;5032205;28;20038;-48
2022/01/04 07:57:10;;;;;;;36.60;20.08;;;8.40;99.90;;;;;;5021444;28;20030;-49
2022/01/04 07:59:36;;;;;;;32.75;18.48;;;8.30;99.90;;;;;;5017122;28;20060;-52
2022/01/04 08:02:02;;;;;;;31.23;18.30;;;8.30;99.90;;;;;;4975177;28;20049;-51
2022/01/04 08:04:28;;;;;;;36.28;19.40;;;8.30;99.90;;;;;;5008512;28;20049;-48
2022/01/04 08:06:54;;;;;;;34.90;17.85;;;8.20;99.90;;;;;;5041473;28;20558;-51
2022/01/04 08:09:19;;;;;;;31.65;17.65;;;8.30;99.90;;;;;;5022957;28;20075;-49
2022/01/04 08:11:45;;;;;;;31.90;18.10;;;8.30;99.90;;;;;;5017464;28;20073;-49
2022/01/04 08:14:10;;;;;;;29.25;17.10;;;8.30;99.90;;;;;;5024868;28;20409;-50
2022/01/04 08:16:36;;;;;;;31.63;17.15;;;8.30;99.90;;;;;;4997188;28;20512;-51
2022/01/04 08:19:02;;;;;;;29.23;17.45;;;8.30;99.90;;;;;;5028044;28;20104;-51
2022/01/04 08:21:27;;;;;;;34.22;17.52;;;8.30;99.90;;;;;;5022820;28;20045;-48
2022/01/04 08:23:53;;;;;;;26.02;17.05;;;8.30;99.90;;;;;;5034088;28;20041;-51
2022/01/04 08:26:19;;;;;;;31.98;17.15;;;8.30;99.90;;;;;;5026490;28;20045;-52
2022/01/04 08:28:45;;;;;;;31.20;16.50;;;8.30;99.90;;;;;;4999219;28;20465;-53
2022/01/04 08:31:11;;;;;;;29.70;17.25;;;8.30;99.90;;;;;;4991001;28;20057;-53
2022/01/04 08:33:37;;;;;;;28.48;16.40;;;8.30;99.90;;;;;;4980527;28;20041;-51
2022/01/04 08:36:04;;;;;;;27.38;16.77;;;8.30;99.90;;;;;;5014243;28;20045;-51
2022/01/04 08:38:29;;;;;;;27.40;16.00;;;8.30;99.90;;;;;;4997227;28;20050;-52
2022/01/04 08:40:55;;;;;;;30.63;17.02;;;8.30;99.90;;;;;;5030708;28;20409;-52
2022/01/04 08:43:20;;;;;;;29.02;17.23;;;8.30;99.90;;;;;;5022387;28;20136;-50
2022/01/04 08:45:46;;;;;;;35.28;17.80;;;8.30;99.90;;;;;;5032706;28;20041;-50
2022/01/04 08:48:12;;;;;;;30.67;17.52;;;8.30;99.90;;;;;;5024946;28;20083;-50
2022/01/04 08:50:37;;;;;;;35.90;17.55;;;8.30;99.90;;;;;;5015950;28;20042;-52
2022/01/04 08:53:03;;;;;;;32.10;17.98;;;8.30;99.90;;;;;;5021317;28;20038;-52
2022/01/04 08:55:29;;;;;;;36.30;17.33;;;8.40;99.90;;;;;;5025086;28;20045;-51
2022/01/04 08:57:55;;;;;;;34.85;18.48;;;8.40;99.90;;;;;;5033798;28;20041;-52
2022/01/04 09:00:21;;;;;;;33.58;18.27;;;8.40;99.90;;;;;;5015326;28;20136;-50
2022/01/04 09:02:46;;;;;;;42.50;18.88;;;8.40;99.90;;;;;;5032657;28;20099;-50
2022/01/04 09:05:12;;;;;;;33.45;19.35;;;8.40;99.90;;;;;;5031132;28;20061;-52
2022/01/04 09:07:38;;;;;;;32.85;18.25;;;8.40;99.90;;;;;;5032069;28;20041;-52
2022/01/04 09:10:05;;;;;;;34.13;19.42;;;8.40;99.90;;;;;;5003313;28;20050;-53
2022/01/04 09:13:16;;;;;;;35.47;19.15;;;8.40;99.90;;;;;;5015270;28;20034;-52
2022/01/04 09:20:51;;;;;;;33.75;19.60;;;8.40;99.90;;;;;;5031212;28;20428;-51
2022/01/04 09:23:20;;;;;;;27.77;15.63;;;8.40;99.90;;;;;;5028302;28;20041;-52
2022/01/04 09:25:47;;;;;;;21.48;12.00;;;8.40;99.90;;;;;;5029454;28;20048;-53
2022/01/04 09:28:14;;;;;;;28.58;14.88;;;8.30;99.90;;;;;;5028790;28;20041;-52
2022/01/04 09:30:41;;;;;;;14.15;7.55;;;8.30;99.90;;;;;;5012582;28;20049;-50
2022/01/04 09:33:07;;;;;;;11.57;5.40;;;8.30;99.90;;;;;;5028624;28;20124;-51
2022/01/04 09:35:34;;;;;;;8.95;5.07;;;8.20;99.90;;;;;;5019885;28;20111;-50
2022/01/04 09:38:00;;;;;;;7.03;3.83;;;8.10;99.90;;;;;;5019054;28;20037;-52
2022/01/04 09:40:25;;;;;;;7.63;3.70;;;8.00;99.90;;;;;;5005310;28;20057;-49
2022/01/04 09:42:52;;;;;;;9.07;3.15;;;7.90;99.90;;;;;;5024217;28;20052;-48
2022/01/04 09:45:18;;;;;;;7.22;3.10;;;7.80;99.90;;;;;;5008614;28;20081;-51
2022/01/04 09:47:44;;;;;;;10.07;3.33;;;7.70;99.90;;;;;;5014035;28;20073;-52
2022/01/04 09:50:10;;;;;;;8.20;3.13;;;7.70;99.90;;;;;;5013071;28;20088;-51
2022/01/04 09:52:49;;;;;;;4.10;2.17;;;7.70;99.90;;;;;;5013327;28;20036;-50
2022/01/04 09:55:15;;;;;;;9.10;2.33;;;7.70;99.90;;;;;;5012798;28;20645;-52
2022/01/04 09:57:43;;;;;;;6.75;2.40;;;7.70;99.90;;;;;;5020020;28;20048;-51
2022/01/04 10:00:14;;;;;;;6.32;2.30;;;7.70;99.90;;;;;;5012667;28;20049;-52
2022/01/04 10:02:50;;;;;;;6.50;2.53;;;7.70;99.90;;;;;;4995353;28;20050;-50
2022/01/04 10:05:21;;;;;;;8.63;3.00;;;7.70;99.90;;;;;;5012742;28;20494;-50
2022/01/04 10:07:48;;;;;;;5.57;2.30;;;7.70;99.90;;;;;;5012871;28;20749;-51
2022/01/04 10:10:15;;;;;;;9.48;2.55;;;7.70;99.90;;;;;;4994819;28;20038;-51
2022/01/04 10:12:54;;;;;;;7.95;2.75;;;7.70;99.90;;;;;;5016747;28;20405;-52
2022/01/04 10:15:47;;;;;;;6.82;1.90;;;7.80;99.90;;;;;;5016547;28;20498;-51
2022/01/04 10:18:13;;;;;;;7.53;2.28;;;7.80;99.90;;;;;;4995004;28;20045;-51
2022/01/04 10:20:46;;;;;;;7.68;2.20;;;7.80;99.90;;;;;;5012087;28;20390;-52
2022/01/04 10:23:14;;;;;;;5.63;2.25;;;7.80;99.90;;;;;;4996634;28;20049;-49
2022/01/04 10:25:40;;;;;;;6.75;1.90;;;7.90;99.90;;;;;;5012557;28;20466;-53
2022/01/04 10:28:05;;;;;;;5.80;2.10;;;7.90;99.90;;;;;;5022691;28;20103;-51
2022/01/04 10:30:44;;;;;;;9.18;2.20;;;7.90;99.90;;;;;;5022649;28;20034;-51
2022/01/04 10:33:12;;;;;;;7.53;2.30;;;7.90;99.90;;;;;;5040720;22;20049;-51
2022/01/04 10:35:49;;;;;;;8.18;2.70;;;8.00;99.90;;;;;;5031503;28;20438;-51
2022/01/04 10:38:22;;;;;;;7.95;2.90;;;8.00;99.90;;;;;;5031686;28;20041;-50
2022/01/04 10:40:51;;;;;;;10.60;3.33;;;7.90;99.90;;;;;;5031842;28;20043;-49
2022/01/04 10:43:19;;;;;;;12.90;3.60;;;8.00;99.90;;;;;;5022351;28;20056;-51
2022/01/04 10:45:46;;;;;;;8.05;2.60;;;8.00;99.90;;;;;;5014923;28;20048;-52
2022/01/04 10:48:14;;;;;;;8.30;2.78;;;8.00;99.90;;;;;;5031884;28;20041;-52
2022/01/04 10:50:40;;;;;;;10.55;3.15;;;8.10;99.90;;;;;;5029733;28;20052;-50
2022/01/04 10:53:14;;;;;;;10.73;2.35;;;8.00;99.90;;;;;;5031474;28;20038;-52
2022/01/04 10:55:40;;;;;;;7.82;2.20;;;7.90;99.90;;;;;;5031670;28;20037;-50
2022/01/04 10:58:05;;;;;;;8.20;2.30;;;7.90;99.90;;;;;;5031442;28;20049;-50
2022/01/04 11:00:31;;;;;;;11.52;4.80;;;7.80;99.90;;;;;;5030967;28;20048;-52
2022/01/04 11:03:00;;;;;;;4.82;2.10;;;7.80;99.90;;;;;;5031382;28;20048;-51
2022/01/04 11:05:26;;;;;;;9.27;2.00;;;7.70;99.90;;;;;;5021253;28;20497;-52
2022/01/04 11:07:59;;;;;;;6.97;1.98;;;7.70;99.90;;;;;;5022883;28;20037;-52
2022/01/04 11:10:27;;;;;;;9.38;2.20;;;7.60;99.90;;;;;;5023677;28;20515;-50
2022/01/04 11:12:57;;;;;;;5.82;1.90;;;7.50;99.90;;;;;;5013049;28;20037;-52
2022/01/04 11:15:23;;;;;;;5.53;2.08;;;7.50;99.90;;;;;;5031560;28;20485;-49
2022/01/04 11:17:49;;;;;;;10.45;2.78;;;7.50;99.90;;;;;;5030851;28;20037;-51
2022/01/04 11:20:15;;;;;;;7.20;1.90;;;7.50;99.90;;;;;;5029530;28;20056;-49
2022/01/04 11:22:45;;;;;;;7.40;1.92;;;7.40;99.90;;;;;;5031180;28;20045;-52
2022/01/04 11:25:13;;;;;;;4.43;1.60;;;7.40;99.90;;;;;;5008929;28;20091;-51
2022/01/04 11:27:40;;;;;;;9.27;2.30;;;7.40;99.90;;;;;;5031377;28;20045;-52
2022/01/04 11:30:15;;;;;;;7.75;2.38;;;7.40;99.90;;;;;;5031386;28;20506;-49
2022/01/04 11:32:45;;;;;;;4.05;1.40;;;7.40;99.90;;;;;;5030930;28;20493;-52
2022/01/04 11:35:13;;;;;;;4.40;1.67;;;7.40;99.90;;;;;;5031491;28;20052;-53
2022/01/04 11:37:41;;;;;;;8.57;1.70;;;7.40;99.90;;;;;;5016898;28;20034;-51
2022/01/04 11:40:34;;;;;;;7.03;1.85;;;7.40;99.90;;;;;;5020655;28;20106;-49
2022/01/04 11:43:01;;;;;;;2.90;1.42;;;7.40;99.90;;;;;;5021888;28;20052;-51
2022/01/04 11:45:46;;;;;;;8.85;1.85;;;7.40;99.90;;;;;;5022040;28;20052;-50
2022/01/04 11:48:41;;;;;;;7.22;1.70;;;7.40;99.90;;;;;;5031540;28;20608;-51
2022/01/04 11:51:26;;;;;;;6.70;1.90;;;7.30;99.90;;;;;;5029484;28;20042;-49
2022/01/04 11:54:22;;;;;;;4.90;1.55;;;7.20;99.90;;;;;;5037873;28;20045;-51
2022/01/04 11:56:57;;;;;;;2.67;1.25;;;7.20;99.90;;;;;;5018958;28;20401;-50
2022/01/04 11:59:37;;;;;;;4.25;1.40;;;7.10;99.90;;;;;;5049632;28;20067;-52
2022/01/04 12:02:24;;;;;;;2.75;1.02;;;6.90;99.90;;;;;;5054214;28;20123;-51
2022/01/04 12:05:01;;;;;;;3.80;1.02;;;6.80;99.90;;;;;;5039642;28;20415;-53
2022/01/04 12:07:50;;;;;;;3.53;1.25;;;6.70;99.90;;;;;;5034425;28;20038;-52
2022/01/04 12:10:18;;;;;;;5.88;0.93;;;6.60;99.90;;;;;;5032414;28;20049;-52
2022/01/04 12:13:01;;;;;;;3.13;0.68;;;6.60;99.90;;;;;;5046485;28;20071;-51
2022/01/04 12:15:33;;;;;;;;;;;6.60;99.90;;;;;;5032042;28;20512;-53
2022/01/04 12:18:09;;;;;;;3.42;0.80;;;6.60;99.90;;;;;;5030638;28;20379;-52
2022/01/04 12:20:43;;;;;;;5.03;0.85;;;6.60;99.90;;;;;;5044692;28;20121;-53
2022/01/04 12:23:29;;;;;;;6.15;1.45;;;6.50;99.90;;;;;;5047810;28;20036;-49
2022/01/04 12:26:04;;;;;;;5.90;0.93;;;6.50;99.90;;;;;;5034741;28;20057;-52
2022/01/04 12:28:33;;;;;;;5.75;0.98;;;6.50;99.90;;;;;;5034337;28;20045;-51
2022/01/04 12:31:15;;;;;;;7.22;2.33;;;6.50;99.90;;;;;;5033924;28;20509;-52
2022/01/04 12:33:51;;;;;;;4.43;0.88;;;6.40;99.90;;;;;;5028534;28;20045;-51
2022/01/04 12:36:36;;;;;;;4.00;2.80;;;6.30;99.90;;;;;;5024939;28;20038;-52
2022/01/04 12:39:05;;;;;;;6.78;0.80;;;6.30;99.90;;;;;;5032055;28;20041;-52
2022/01/04 12:41:32;;;;;;;7.05;1.00;;;6.10;99.90;;;;;;5030400;28;20045;-52
2022/01/04 12:43:59;;;;;;;2.55;0.93;;;6.00;99.90;;;;;;5029999;28;20119;-52
2022/01/04 12:46:34;;;;;;;9.07;0.85;;;5.90;99.90;;;;;;5030173;28;20450;-51
2022/01/04 12:49:05;;;;;;;2.80;0.73;;;6.00;99.90;;;;;;5012720;28;20055;-51
2022/01/04 12:51:38;;;;;;;5.53;1.50;;;5.90;99.90;;;;;;5029414;28;20037;-52
2022/01/04 12:54:10;;;;;;;3.47;0.70;;;6.00;99.90;;;;;;5030010;28;20059;-51